Time;durP1;ratioP1;P1;durP2;ratioP2;P2;SDS_P1;SDS_P2;PMS_P1;PMS_P2;Temp;Humidity;BMP_temperature;BMP_pressure;BME280_temperature;BME280_humidity;BME280_pressure;Samples;Min_cycle;Max_cycle;Signal;HPM_P1;HPM_P2
2023/11/05 00:02:05;;;;;;;3.47;3.28;;;;;;;;;;6306952;28;20290;-70
2023/11/05 00:05:13;;;;;;;3.90;3.60;;;;;;;;;;6306544;28;20494;-70
2023/11/05 00:08:17;;;;;;;3.88;3.55;;;;;;;;;;6306490;28;20310;-70
2023/11/05 00:11:22;;;;;;;3.97;3.67;;;;;;;;;;6306767;28;20601;-70
2023/11/05 00:14:26;;;;;;;7.93;3.83;;;;;;;;;;6306306;28;20290;-72
2023/11/05 00:17:30;;;;;;;4.63;3.90;;;;;;;;;;6306069;28;20294;-70
2023/11/05 00:20:33;;;;;;;4.40;4.20;;;;;;;;;;6306892;28;20658;-70
2023/11/05 00:23:37;;;;;;;7.20;4.50;;;;;;;;;;6304934;28;20298;-70
2023/11/05 00:26:42;;;;;;;10.63;4.85;;;;;;;;;;6306388;28;20321;-70
2023/11/05 00:29:46;;;;;;;5.18;4.72;;;;;;;;;;6306133;28;20366;-71
2023/11/05 00:32:50;;;;;;;5.50;4.50;;;;;;;;;;6304807;28;20626;-71
2023/11/05 00:35:54;;;;;;;6.50;5.15;;;;;;;;;;6305119;28;20422;-69
2023/11/05 00:38:57;;;;;;;8.50;4.95;;;;;;;;;;6305782;28;20293;-70
2023/11/05 00:42:02;;;;;;;6.20;4.53;;;;;;;;;;6304200;28;20323;-70
2023/11/05 00:45:07;;;;;;;6.55;4.95;;;;;;;;;;6304049;28;20298;-70
2023/11/05 00:48:11;;;;;;;6.03;4.70;;;;;;;;;;6304826;28;20409;-70
2023/11/05 00:51:15;;;;;;;8.15;4.78;;;;;;;;;;6305994;28;20310;-71
2023/11/05 00:54:19;;;;;;;4.95;4.55;;;;;;;;;;6303423;28;20590;-71
2023/11/05 00:57:24;;;;;;;5.70;4.50;;;;;;;;;;6305456;28;20385;-70
2023/11/05 01:00:28;;;;;;;8.27;4.70;;;;;;;;;;6305856;28;20591;-69
2023/11/05 01:03:32;;;;;;;6.90;4.93;;;;;;;;;;6305339;28;20357;-70
2023/11/05 01:06:37;;;;;;;6.95;5.50;;;;;;;;;;6305854;28;20290;-70
2023/11/05 01:09:41;;;;;;;10.85;5.25;;;;;;;;;;6303960;28;20302;-70
2023/11/05 01:12:46;;;;;;;4.90;4.40;;;;;;;;;;6337227;28;20290;-69
2023/11/05 01:15:50;;;;;;;7.82;4.38;;;;;;;;;;6337836;28;20346;-70
2023/11/05 01:18:54;;;;;;;8.18;5.05;;;;;;;;;;6303795;28;20290;-69
2023/11/05 01:21:58;;;;;;;4.72;4.32;;;;;;;;;;6303973;28;20619;-69
2023/11/05 01:25:02;;;;;;;6.22;4.45;;;;;;;;;;6305022;28;20294;-70
2023/11/05 01:28:07;;;;;;;5.55;4.07;;;;;;;;;;6304835;28;20313;-70
2023/11/05 01:31:11;;;;;;;6.35;4.53;;;;;;;;;;6305448;28;20282;-71
2023/11/05 01:34:14;;;;;;;8.68;4.63;;;;;;;;;;6304915;28;20290;-70
2023/11/05 01:37:18;;;;;;;5.13;4.45;;;;;;;;;;6342055;28;20297;-69
2023/11/05 01:40:22;;;;;;;9.07;3.80;;;;;;;;;;6308685;28;20322;-70
2023/11/05 01:43:28;;;;;;;5.45;4.05;;;;;;;;;;6308061;28;20289;-70
2023/11/05 01:46:32;;;;;;;7.32;4.22;;;;;;;;;;6309727;28;20297;-70
2023/11/05 01:49:36;;;;;;;3.65;3.35;;;;;;;;;;6308543;28;20309;-69
2023/11/05 01:52:39;;;;;;;3.97;3.60;;;;;;;;;;6309429;28;20542;-70
2023/11/05 01:55:43;;;;;;;3.40;3.20;;;;;;;;;;6308142;28;20290;-69
2023/11/05 01:58:49;;;;;;;4.00;3.47;;;;;;;;;;6308118;28;20299;-69
2023/11/05 02:01:53;;;;;;;4.95;3.25;;;;;;;;;;6308539;28;20241;-70
2023/11/05 02:04:58;;;;;;;3.40;3.17;;;;;;;;;;6308073;28;20302;-70
2023/11/05 02:08:02;;;;;;;5.07;3.20;;;;;;;;;;6308043;28;20689;-69
2023/11/05 02:11:06;;;;;;;4.47;3.38;;;;;;;;;;6309416;28;20349;-70
2023/11/05 02:14:14;;;;;;;3.42;3.05;;;;;;;;;;6307536;28;20579;-69
2023/11/05 02:17:17;;;;;;;5.13;3.40;;;;;;;;;;6308953;28;20294;-71
2023/11/05 02:20:22;;;;;;;3.67;3.28;;;;;;;;;;6308337;28;20473;-69
2023/11/05 02:23:27;;;;;;;3.25;3.03;;;;;;;;;;6307032;28;20330;-69
2023/11/05 02:26:31;;;;;;;3.40;3.17;;;;;;;;;;6307684;28;20294;-69
2023/11/05 02:29:35;;;;;;;4.72;3.30;;;;;;;;;;6306197;28;20302;-69
2023/11/05 02:32:39;;;;;;;3.38;3.17;;;;;;;;;;6308640;28;20251;-70
2023/11/05 02:35:43;;;;;;;2.70;2.60;;;;;;;;;;6308682;28;20254;-70
2023/11/05 02:38:48;;;;;;;5.00;3.10;;;;;;;;;;6306435;28;20313;-71
2023/11/05 02:41:52;;;;;;;3.40;3.10;;;;;;;;;;6308804;28;20264;-69
2023/11/05 02:44:55;;;;;;;3.95;2.60;;;;;;;;;;6306828;28;20302;-71
2023/11/05 02:47:59;;;;;;;3.50;2.72;;;;;;;;;;6307031;28;20401;-71
2023/11/05 02:51:03;;;;;;;3.67;2.40;;;;;;;;;;6308676;28;20313;-70
2023/11/05 02:54:09;;;;;;;2.65;2.50;;;;;;;;;;6306009;28;20499;-70
2023/11/05 02:57:12;;;;;;;4.18;2.65;;;;;;;;;;6308163;28;20290;-70
2023/11/05 03:00:17;;;;;;;3.88;2.50;;;;;;;;;;6307950;28;20298;-70
2023/11/05 03:03:21;;;;;;;2.95;2.25;;;;;;;;;;6306554;28;20241;-70
2023/11/05 03:06:25;;;;;;;3.40;2.30;;;;;;;;;;6307031;28;20290;-70
2023/11/05 03:09:30;;;;;;;3.65;2.33;;;;;;;;;;6307137;28;20293;-71
2023/11/05 03:12:34;;;;;;;2.60;2.40;;;;;;;;;;6290783;28;20314;-70
2023/11/05 03:15:38;;;;;;;2.08;1.98;;;;;;;;;;6307766;28;20295;-70
2023/11/05 03:18:42;;;;;;;2.78;2.33;;;;;;;;;;6307224;28;20446;-70
2023/11/05 03:21:46;;;;;;;3.47;2.38;;;;;;;;;;6306266;28;20294;-69
2023/11/05 03:24:51;;;;;;;3.40;2.05;;;;;;;;;;6306107;28;20294;-70
2023/11/05 03:27:55;;;;;;;4.13;2.40;;;;;;;;;;6305883;28;20290;-70
2023/11/05 03:30:58;;;;;;;5.13;2.10;;;;;;;;;;6306910;28;20286;-70
2023/11/05 03:34:03;;;;;;;3.20;2.15;;;;;;;;;;6307657;28;20326;-69
2023/11/05 03:37:07;;;;;;;2.10;1.90;;;;;;;;;;6307758;28;20294;-69
2023/11/05 03:40:13;;;;;;;3.05;2.33;;;;;;;;;;6306034;28;20302;-70
2023/11/05 03:43:17;;;;;;;2.40;2.17;;;;;;;;;;6306586;28;20306;-69
2023/11/05 03:46:22;;;;;;;3.97;2.03;;;;;;;;;;6305799;28;20468;-70
2023/11/05 03:49:26;;;;;;;2.08;1.90;;;;;;;;;;6306495;28;20446;-69
2023/11/05 03:52:29;;;;;;;3.08;1.67;;;;;;;;;;6305325;28;20306;-69
2023/11/05 03:55:35;;;;;;;3.08;2.03;;;;;;;;;;6304985;28;20472;-70
2023/11/05 03:58:39;;;;;;;5.25;1.80;;;;;;;;;;6306624;28;20286;-70
2023/11/05 04:01:43;;;;;;;4.50;1.77;;;;;;;;;;6305669;28;20293;-70
2023/11/05 04:04:48;;;;;;;3.13;1.60;;;;;;;;;;6304553;28;20318;-70
2023/11/05 04:07:53;;;;;;;5.10;1.70;;;;;;;;;;6304930;28;20298;-70
2023/11/05 04:10:58;;;;;;;2.03;1.80;;;;;;;;;;6306346;28;20282;-70
2023/11/05 04:14:02;;;;;;;3.40;2.05;;;;;;;;;;6305887;28;20302;-71
2023/11/05 04:17:06;;;;;;;2.03;1.90;;;;;;;;;;6306102;28;20293;-72
2023/11/05 04:20:10;;;;;;;1.70;1.60;;;;;;;;;;6305985;28;20342;-70
2023/11/05 04:23:13;;;;;;;2.00;1.80;;;;;;;;;;6305667;28;20290;-69
2023/11/05 04:26:18;;;;;;;1.83;1.80;;;;;;;;;;6304619;28;20481;-70
2023/11/05 04:29:22;;;;;;;2.92;2.00;;;;;;;;;;6305819;28;20290;-71
2023/11/05 04:32:26;;;;;;;2.13;2.00;;;;;;;;;;6306149;28;20306;-70
2023/11/05 04:35:30;;;;;;;2.22;2.00;;;;;;;;;;6305652;28;20342;-70
2023/11/05 04:38:36;;;;;;;2.28;2.08;;;;;;;;;;6305464;28;20364;-70
2023/11/05 04:41:41;;;;;;;2.30;2.00;;;;;;;;;;6304948;28;20258;-69
2023/11/05 04:44:45;;;;;;;1.90;1.90;;;;;;;;;;6305305;28;20314;-71
2023/11/05 04:47:49;;;;;;;2.10;2.00;;;;;;;;;;6306022;28;20258;-69
2023/11/05 04:50:53;;;;;;;2.10;2.00;;;;;;;;;;6306229;28;20250;-70
2023/11/05 04:53:56;;;;;;;2.00;1.90;;;;;;;;;;6303798;28;20289;-69
2023/11/05 04:57:02;;;;;;;2.55;1.85;;;;;;;;;;6305594;28;20294;-69
2023/11/05 05:00:08;;;;;;;3.53;1.85;;;;;;;;;;6305535;28;20306;-69
2023/11/05 05:03:12;;;;;;;1.80;1.70;;;;;;;;;;6305268;28;20298;-70
2023/11/05 05:06:16;;;;;;;2.03;1.75;;;;;;;;;;6306265;28;20321;-69
2023/11/05 05:09:19;;;;;;;2.25;2.08;;;;;;;;;;6305093;28;20306;-69
2023/11/05 05:12:24;;;;;;;1.90;1.90;;;;;;;;;;6305642;28;20334;-70
2023/11/05 05:15:28;;;;;;;5.50;2.10;;;;;;;;;;6305437;28;20470;-70
2023/11/05 05:18:32;;;;;;;7.18;2.25;;;;;;;;;;6305277;28;20286;-70
2023/11/05 05:21:42;;;;;;;2.08;1.98;;;;;;;;;;6305814;28;20305;-68
2023/11/05 05:24:46;;;;;;;3.00;1.88;;;;;;;;;;6305138;28;20298;-68
2023/11/05 05:27:51;;;;;;;4.53;2.20;;;;;;;;;;6305175;28;20283;-70
2023/11/05 05:30:55;;;;;;;2.13;2.00;;;;;;;;;;6305990;28;20325;-70
2023/11/05 05:33:59;;;;;;;3.22;2.20;;;;;;;;;;6305548;28;20290;-70
2023/11/05 05:37:03;;;;;;;2.33;2.13;;;;;;;;;;6305586;28;20295;-69
2023/11/05 05:40:08;;;;;;;2.30;2.20;;;;;;;;;;6305727;28;20302;-70
2023/11/05 05:43:14;;;;;;;4.47;1.88;;;;;;;;;;6305607;28;20298;-70
2023/11/05 05:46:18;;;;;;;2.15;1.98;;;;;;;;;;6304987;28;20521;-70
2023/11/05 05:49:22;;;;;;;2.10;2.00;;;;;;;;;;6304992;28;20598;-69
2023/11/05 05:52:26;;;;;;;2.60;2.13;;;;;;;;;;6305093;28;20286;-71
2023/11/05 05:55:29;;;;;;;3.35;1.85;;;;;;;;;;6303160;28;20476;-69
2023/11/05 05:58:35;;;;;;;4.68;2.65;;;;;;;;;;6305319;28;20298;-69
2023/11/05 06:01:38;;;;;;;4.40;2.17;;;;;;;;;;6305358;28;20460;-71
2023/11/05 06:04:42;;;;;;;5.20;2.25;;;;;;;;;;6304735;28;20355;-69
2023/11/05 06:07:46;;;;;;;2.38;2.28;;;;;;;;;;6305009;28;20301;-69
2023/11/05 06:10:50;;;;;;;2.33;2.17;;;;;;;;;;6305152;28;20294;-69
2023/11/05 06:13:55;;;;;;;3.25;2.15;;;;;;;;;;6304368;28;20302;-70
2023/11/05 06:16:59;;;;;;;4.40;2.60;;;;;;;;;;6304811;28;20302;-70
2023/11/05 06:20:05;;;;;;;2.67;2.47;;;;;;;;;;6304562;28;20298;-70
2023/11/05 06:23:09;;;;;;;5.78;2.40;;;;;;;;;;6306762;28;20311;-69
2023/11/05 06:26:12;;;;;;;2.53;2.30;;;;;;;;;;6309129;28;20294;-70
2023/11/05 06:29:17;;;;;;;2.40;2.20;;;;;;;;;;6308729;28;20294;-70
2023/11/05 06:32:21;;;;;;;2.55;2.30;;;;;;;;;;6308860;28;20286;-69
2023/11/05 06:35:25;;;;;;;4.28;2.47;;;;;;;;;;6308715;28;20381;-69
2023/11/05 06:38:28;;;;;;;3.72;2.50;;;;;;;;;;6308463;28;20435;-71
2023/11/05 06:41:32;;;;;;;9.65;2.58;;;;;;;;;;6307744;28;20297;-69
2023/11/05 06:44:37;;;;;;;3.55;2.40;;;;;;;;;;6307651;28;20302;-69
2023/11/05 06:47:42;;;;;;;2.50;2.40;;;;;;;;;;6308902;28;20431;-70
2023/11/05 06:50:47;;;;;;;4.68;2.60;;;;;;;;;;6307925;28;20271;-70
2023/11/05 06:53:50;;;;;;;3.00;2.53;;;;;;;;;;6306520;28;20294;-70
2023/11/05 06:56:54;;;;;;;2.50;2.40;;;;;;;;;;6308831;28;20247;-71
2023/11/05 07:00:00;;;;;;;2.97;2.78;;;;;;;;;;6308358;28;20311;-69
2023/11/05 07:03:03;;;;;;;3.03;2.50;;;;;;;;;;6307971;28;20306;-69
2023/11/05 07:06:07;;;;;;;2.78;2.47;;;;;;;;;;6308230;28;20301;-70
2023/11/05 07:09:11;;;;;;;3.92;2.28;;;;;;;;;;6307950;28;20279;-70
2023/11/05 07:12:17;;;;;;;3.90;2.78;;;;;;;;;;6308188;28;20384;-70
2023/11/05 07:15:23;;;;;;;2.55;2.38;;;;;;;;;;6307742;28;20290;-70
2023/11/05 07:18:26;;;;;;;2.20;2.10;;;;;;;;;;6307646;28;20319;-69
2023/11/05 07:21:31;;;;;;;3.10;2.70;;;;;;;;;;6308368;28;20309;-69
2023/11/05 07:24:35;;;;;;;2.95;2.63;;;;;;;;;;6307557;28;20306;-70
2023/11/05 07:27:39;;;;;;;4.00;2.70;;;;;;;;;;6307810;28;20290;-71
2023/11/05 07:30:44;;;;;;;4.40;2.40;;;;;;;;;;6307378;28;20325;-70
2023/11/05 07:33:48;;;;;;;2.92;2.67;;;;;;;;;;6306597;28;20290;-71
2023/11/05 07:36:52;;;;;;;3.22;2.90;;;;;;;;;;6307430;28;20302;-70
2023/11/05 07:39:56;;;;;;;2.40;2.30;;;;;;;;;;6307013;28;20294;-71
2023/11/05 07:43:00;;;;;;;3.50;2.67;;;;;;;;;;6307167;28;20298;-71
2023/11/05 07:46:06;;;;;;;4.43;2.78;;;;;;;;;;6307213;28;20302;-71
2023/11/05 07:49:10;;;;;;;2.75;2.60;;;;;;;;;;6306686;28;20297;-71
2023/11/05 07:52:14;;;;;;;2.85;2.72;;;;;;;;;;6306954;28;20293;-71
2023/11/05 07:55:18;;;;;;;3.10;2.78;;;;;;;;;;6304969;28;20295;-70
2023/11/05 07:58:22;;;;;;;3.92;2.80;;;;;;;;;;6306661;28;20334;-69
2023/11/05 08:01:28;;;;;;;2.97;2.78;;;;;;;;;;6306763;28;20294;-70
2023/11/05 08:04:32;;;;;;;22.05;3.38;;;;;;;;;;6306266;28;20269;-70
2023/11/05 08:07:35;;;;;;;3.42;3.00;;;;;;;;;;6306873;28;20301;-70
2023/11/05 08:10:39;;;;;;;3.55;2.95;;;;;;;;;;6305613;28;20302;-70
2023/11/05 08:13:44;;;;;;;6.72;3.10;;;;;;;;;;6306899;28;20286;-69
2023/11/05 08:16:50;;;;;;;3.33;2.90;;;;;;;;;;6307034;28;20294;-71
2023/11/05 08:19:54;;;;;;;4.65;3.58;;;;;;;;;;6306524;28;20306;-70
2023/11/05 08:22:58;;;;;;;8.23;4.10;;;;;;;;;;6305935;28;20305;-70
2023/11/05 08:26:02;;;;;;;4.88;4.25;;;;;;;;;;6306362;28;20586;-70
2023/11/05 08:29:05;;;;;;;4.60;3.53;;;;;;;;;;6304824;28;20309;-70
2023/11/05 08:32:11;;;;;;;3.83;3.53;;;;;;;;;;6306222;28;20602;-70
2023/11/05 08:35:15;;;;;;;3.72;3.50;;;;;;;;;;6305887;28;20314;-70
2023/11/05 08:38:19;;;;;;;3.78;3.47;;;;;;;;;;6305692;28;20294;-70
2023/11/05 08:41:23;;;;;;;6.65;4.13;;;;;;;;;;6305153;28;20504;-69
2023/11/05 08:44:27;;;;;;;7.32;4.25;;;;;;;;;;6304887;28;20334;-69
2023/11/05 08:47:32;;;;;;;6.32;4.63;;;;;;;;;;6305972;28;20285;-70
2023/11/05 08:50:36;;;;;;;10.55;4.57;;;;;;;;;;6304745;28;20317;-69
2023/11/05 08:53:40;;;;;;;6.68;4.70;;;;;;;;;;6303792;28;20290;-70
2023/11/05 08:56:44;;;;;;;4.20;3.85;;;;;;;;;;6306053;28;20254;-71
2023/11/05 08:59:47;;;;;;;8.40;4.72;;;;;;;;;;6305622;28;20295;-69
2023/11/05 09:02:53;;;;;;;7.45;5.22;;;;;;;;;;6305536;28;20234;-70
2023/11/05 09:05:57;;;;;;;10.20;5.03;;;;;;;;;;6306089;28;20290;-70
2023/11/05 09:09:00;;;;;;;6.55;4.50;;;;;;;;;;6305296;28;20289;-70
2023/11/05 09:12:07;;;;;;;6.68;4.68;;;;;;;;;;6305755;28;20298;-70
2023/11/05 09:15:11;;;;;;;6.28;4.60;;;;;;;;;;6305438;28;20366;-70
2023/11/05 09:18:16;;;;;;;7.28;4.60;;;;;;;;;;6305204;28;20305;-71
2023/11/05 09:21:20;;;;;;;8.13;4.70;;;;;;;;;;6306056;28;20475;-70
2023/11/05 09:24:27;;;;;;;6.72;4.65;;;;;;;;;;6305514;28;20437;-70
2023/11/05 09:27:31;;;;;;;7.80;4.90;;;;;;;;;;6305588;28;20294;-72
2023/11/05 09:30:35;;;;;;;7.55;4.63;;;;;;;;;;6305671;28;20313;-70
2023/11/05 09:33:40;;;;;;;6.13;4.50;;;;;;;;;;6305245;28;20285;-71
2023/11/05 09:36:44;;;;;;;8.13;5.30;;;;;;;;;;6305247;28;20326;-72
2023/11/05 09:39:48;;;;;;;7.80;4.90;;;;;;;;;;6305034;28;20306;-70
2023/11/05 09:42:58;;;;;;;7.80;5.53;;;;;;;;;;6304908;28;20459;-70
2023/11/05 09:46:04;;;;;;;5.60;5.00;;;;;;;;;;6305236;28;20310;-70
2023/11/05 09:49:09;;;;;;;8.30;5.95;;;;;;;;;;6304853;28;20293;-71
2023/11/05 09:52:13;;;;;;;9.27;5.82;;;;;;;;;;6305473;28;20306;-71
2023/11/05 09:55:17;;;;;;;6.55;5.97;;;;;;;;;;6303106;28;20290;-70
2023/11/05 09:58:22;;;;;;;11.80;6.10;;;;;;;;;;6309267;28;20298;-71
2023/11/05 10:01:28;;;;;;;11.50;6.25;;;;;;;;;;6310215;28;20424;-70
2023/11/05 10:04:34;;;;;;;11.50;6.00;;;;;;;;;;6309317;28;20297;-70
2023/11/05 10:07:38;;;;;;;9.30;5.75;;;;;;;;;;6309866;28;20310;-70
2023/11/05 10:10:44;;;;;;;11.38;6.18;;;;;;;;;;6309299;28;20299;-70
2023/11/05 10:13:51;;;;;;;12.07;6.10;;;;;;;;;;6308818;28;20294;-70
2023/11/05 10:16:54;;;;;;;9.40;5.47;;;;;;;;;;6309458;28;20302;-70
2023/11/05 10:20:00;;;;;;;6.10;5.53;;;;;;;;;;6309300;28;20290;-69
2023/11/05 10:23:04;;;;;;;10.32;5.60;;;;;;;;;;6309135;28;20328;-70
2023/11/05 10:26:08;;;;;;;8.32;5.22;;;;;;;;;;6309496;28;20294;-70
2023/11/05 10:29:13;;;;;;;12.63;5.45;;;;;;;;;;6308924;28;20317;-69
2023/11/05 10:32:17;;;;;;;10.30;5.90;;;;;;;;;;6309613;28;20579;-71
2023/11/05 10:35:27;;;;;;;7.20;5.40;;;;;;;;;;6307439;28;20465;-70
2023/11/05 10:38:33;;;;;;;9.48;5.35;;;;;;;;;;6308726;28;20294;-70
2023/11/05 10:41:37;;;;;;;5.82;5.20;;;;;;;;;;6308662;28;20279;-71
2023/11/05 10:44:42;;;;;;;5.45;4.53;;;;;;;;;;6309273;28;20487;-69
2023/11/05 10:47:46;;;;;;;9.05;6.22;;;;;;;;;;6309029;28;20447;-70
2023/11/05 10:50:53;;;;;;;8.98;5.47;;;;;;;;;;6308932;28;20259;-70
2023/11/05 10:53:58;;;;;;;5.78;4.90;;;;;;;;;;6306893;28;20297;-70
2023/11/05 10:57:01;;;;;;;12.23;5.43;;;;;;;;;;6308890;28;20290;-72
2023/11/05 11:00:11;;;;;;;7.20;4.60;;;;;;;;;;6308241;28;20302;-70
2023/11/05 11:03:14;;;;;;;6.55;5.07;;;;;;;;;;6308075;28;20290;-70
2023/11/05 11:06:20;;;;;;;6.20;4.88;;;;;;;;;;6308696;28;20302;-70
2023/11/05 11:09:27;;;;;;;11.15;4.95;;;;;;;;;;6307814;28;20575;-70
2023/11/05 11:12:31;;;;;;;7.10;4.80;;;;;;;;;;6308417;28;20294;-72
2023/11/05 11:15:37;;;;;;;5.43;5.03;;;;;;;;;;6308154;28;20478;-69
2023/11/05 11:18:42;;;;;;;9.73;5.00;;;;;;;;;;6307465;28;20314;-70
2023/11/05 11:21:51;;;;;;;8.45;5.10;;;;;;;;;;6308155;28;20222;-69
2023/11/05 11:24:54;;;;;;;6.97;5.35;;;;;;;;;;6307702;28;20623;-69
2023/11/05 11:28:00;;;;;;;8.73;4.75;;;;;;;;;;6307453;28;20322;-70
2023/11/05 11:31:04;;;;;;;5.47;4.75;;;;;;;;;;6307721;28;20294;-71
2023/11/05 11:34:08;;;;;;;7.97;4.40;;;;;;;;;;6307431;28;20289;-71
2023/11/05 11:37:15;;;;;;;9.65;5.10;;;;;;;;;;6307594;28;20321;-71
2023/11/05 11:40:21;;;;;;;8.73;4.80;;;;;;;;;;6307092;28;20298;-70
2023/11/05 11:43:25;;;;;;;5.75;5.03;;;;;;;;;;6307025;28;20290;-71
2023/11/05 11:46:29;;;;;;;10.30;5.22;;;;;;;;;;6307539;28;20290;-70
2023/11/05 11:49:33;;;;;;;6.07;5.00;;;;;;;;;;6306703;28;20294;-70
2023/11/05 11:52:48;;;;;;;7.47;5.25;;;;;;;;;;6307092;28;20298;-70
2023/11/05 11:55:52;;;;;;;5.88;4.95;;;;;;;;;;6306246;28;20302;-70
2023/11/05 11:58:57;;;;;;;9.32;5.03;;;;;;;;;;6306741;28;20291;-70
2023/11/05 12:02:02;;;;;;;5.25;4.80;;;;;;;;;;6307524;28;20563;-70
2023/11/05 12:05:07;;;;;;;5.53;5.00;;;;;;;;;;6306540;28;20298;-69
2023/11/05 12:08:13;;;;;;;5.50;5.05;;;;;;;;;;6338730;28;20345;-71
2023/11/05 12:11:17;;;;;;;7.88;5.30;;;;;;;;;;6305461;28;20294;-70
2023/11/05 12:14:22;;;;;;;5.60;5.00;;;;;;;;;;6306728;28;20603;-70
2023/11/05 12:17:26;;;;;;;7.78;5.30;;;;;;;;;;6306732;28;20294;-71
2023/11/05 12:20:30;;;;;;;7.50;4.63;;;;;;;;;;6306436;28;20317;-70
2023/11/05 12:23:36;;;;;;;6.30;4.80;;;;;;;;;;6306515;28;20435;-70
2023/11/05 12:26:40;;;;;;;6.70;4.43;;;;;;;;;;6305984;28;20543;-70
2023/11/05 12:29:45;;;;;;;5.47;3.97;;;;;;;;;;6306062;28;20319;-72
2023/11/05 12:32:50;;;;;;;6.10;4.63;;;;;;;;;;6306187;28;20247;-69
2023/11/05 12:35:55;;;;;;;4.63;4.20;;;;;;;;;;6306472;28;20247;-69
2023/11/05 12:39:00;;;;;;;8.13;4.55;;;;;;;;;;6305868;28;20342;-70
2023/11/05 12:42:06;;;;;;;8.43;4.60;;;;;;;;;;6306206;28;20294;-71
2023/11/05 12:45:10;;;;;;;8.90;5.07;;;;;;;;;;6305639;28;20286;-69
2023/11/05 12:48:14;;;;;;;5.88;4.82;;;;;;;;;;6306072;28;20298;-70
2023/11/05 12:51:18;;;;;;;6.38;4.85;;;;;;;;;;6306527;28;20285;-70
2023/11/05 12:54:24;;;;;;;8.57;5.00;;;;;;;;;;6304526;28;20565;-69
2023/11/05 12:57:29;;;;;;;4.95;4.55;;;;;;;;;;6306043;28;20282;-70
2023/11/05 13:00:32;;;;;;;6.10;4.43;;;;;;;;;;6306010;28;20447;-71
2023/11/05 13:03:36;;;;;;;6.45;4.60;;;;;;;;;;6305635;28;20297;-71
2023/11/05 13:06:41;;;;;;;8.55;4.25;;;;;;;;;;6304357;28;20473;-70
2023/11/05 13:09:47;;;;;;;5.15;4.68;;;;;;;;;;6305440;28;20298;-70
2023/11/05 13:12:50;;;;;;;4.68;4.20;;;;;;;;;;6305381;28;20310;-71
2023/11/05 13:15:54;;;;;;;6.10;4.40;;;;;;;;;;6306085;28;20297;-69
2023/11/05 13:18:59;;;;;;;4.97;4.18;;;;;;;;;;6305203;28;20290;-70
2023/11/05 13:22:03;;;;;;;5.10;4.60;;;;;;;;;;6306046;28;20293;-68
2023/11/05 13:25:09;;;;;;;7.13;4.60;;;;;;;;;;6305611;28;20298;-72
2023/11/05 13:28:13;;;;;;;5.60;4.82;;;;;;;;;;6305233;28;20239;-72
2023/11/05 13:31:19;;;;;;;6.53;5.05;;;;;;;;;;6307037;28;20317;-68
2023/11/05 13:34:24;;;;;;;7.55;4.35;;;;;;;;;;6310396;28;20290;-69
2023/11/05 13:37:27;;;;;;;6.07;4.13;;;;;;;;;;6310557;28;20290;-69
2023/11/05 13:40:32;;;;;;;9.52;4.43;;;;;;;;;;6309967;28;20343;-70
2023/11/05 13:43:36;;;;;;;4.47;4.10;;;;;;;;;;6309828;28;20295;-70
2023/11/05 13:46:40;;;;;;;9.32;4.30;;;;;;;;;;6309254;28;20520;-69
2023/11/05 13:49:44;;;;;;;4.88;4.18;;;;;;;;;;6309788;28;20294;-70
2023/11/05 13:52:48;;;;;;;5.43;4.03;;;;;;;;;;6308248;28;20303;-75
2023/11/05 13:55:53;;;;;;;4.60;3.88;;;;;;;;;;6310104;28;20283;-70
2023/11/05 13:58:57;;;;;;;4.60;3.72;;;;;;;;;;6309500;28;20310;-72
2023/11/05 14:02:01;;;;;;;4.38;4.03;;;;;;;;;;6309796;28;20298;-70
2023/11/05 14:05:05;;;;;;;6.28;4.30;;;;;;;;;;6307866;28;20298;-69
2023/11/05 14:08:10;;;;;;;7.47;4.05;;;;;;;;;;6309321;28;20289;-71
2023/11/05 14:11:15;;;;;;;8.48;4.47;;;;;;;;;;6309599;28;20302;-71
2023/11/05 14:14:18;;;;;;;4.50;4.10;;;;;;;;;;6308185;28;20358;-70
2023/11/05 14:17:22;;;;;;;4.68;4.00;;;;;;;;;;6309554;28;20301;-70
2023/11/05 14:20:26;;;;;;;5.03;4.07;;;;;;;;;;6308987;28;20301;-70
2023/11/05 14:23:30;;;;;;;4.55;3.92;;;;;;;;;;6309265;28;20302;-69
2023/11/05 14:26:35;;;;;;;5.90;4.30;;;;;;;;;;6309419;28;20286;-70
2023/11/05 14:29:38;;;;;;;5.80;4.30;;;;;;;;;;6307998;28;20306;-72
2023/11/05 14:32:42;;;;;;;5.13;4.63;;;;;;;;;;6309058;28;20250;-69
2023/11/05 14:35:46;;;;;;;6.35;4.30;;;;;;;;;;6308437;28;20607;-70
2023/11/05 14:38:50;;;;;;;6.63;4.32;;;;;;;;;;6308906;28;20293;-70
2023/11/05 14:41:55;;;;;;;6.05;4.45;;;;;;;;;;6308961;28;20342;-71
2023/11/05 14:44:59;;;;;;;5.05;4.55;;;;;;;;;;6308180;28;20304;-69
2023/11/05 14:48:05;;;;;;;6.10;4.20;;;;;;;;;;6308306;28;20298;-71
2023/11/05 14:51:10;;;;;;;12.77;4.30;;;;;;;;;;6309081;28;20302;-69
2023/11/05 14:54:13;;;;;;;4.82;4.40;;;;;;;;;;6306542;28;20307;-71
2023/11/05 14:57:19;;;;;;;9.30;4.55;;;;;;;;;;6308759;28;20290;-70
2023/11/05 15:00:23;;;;;;;4.65;4.25;;;;;;;;;;6308483;28;20286;-71
2023/11/05 15:03:26;;;;;;;8.80;4.13;;;;;;;;;;6308147;28;20302;-71
2023/11/05 15:06:30;;;;;;;4.40;4.10;;;;;;;;;;6308247;28;20293;-70
2023/11/05 15:09:35;;;;;;;5.38;4.45;;;;;;;;;;6308086;28;20306;-70
2023/11/05 15:12:40;;;;;;;5.28;4.63;;;;;;;;;;6308624;28;20554;-70
2023/11/05 15:15:45;;;;;;;8.27;4.72;;;;;;;;;;6307863;28;20302;-70
2023/11/05 15:18:49;;;;;;;4.50;4.20;;;;;;;;;;6307653;28;20476;-70
2023/11/05 15:21:53;;;;;;;7.10;4.35;;;;;;;;;;6308415;28;20625;-71
2023/11/05 15:24:58;;;;;;;5.03;4.63;;;;;;;;;;6307661;28;20325;-76
2023/11/05 15:28:03;;;;;;;4.25;3.90;;;;;;;;;;6307682;28;20322;-70
2023/11/05 15:31:09;;;;;;;4.35;3.88;;;;;;;;;;6307908;28;20418;-69
2023/11/05 15:34:14;;;;;;;8.05;4.30;;;;;;;;;;6307306;28;20298;-71
2023/11/05 15:37:18;;;;;;;8.18;4.22;;;;;;;;;;6307924;28;20306;-70
2023/11/05 15:40:21;;;;;;;7.25;4.32;;;;;;;;;;6307349;28;20393;-70
2023/11/05 15:43:27;;;;;;;6.47;4.25;;;;;;;;;;6307179;28;20282;-69
2023/11/05 15:46:30;;;;;;;7.13;4.70;;;;;;;;;;6307706;28;20306;-70
2023/11/05 15:49:34;;;;;;;6.05;4.30;;;;;;;;;;6307464;28;20233;-70
2023/11/05 15:52:38;;;;;;;6.78;4.03;;;;;;;;;;6306504;28;20301;-69
2023/11/05 15:55:42;;;;;;;7.22;4.32;;;;;;;;;;6305201;28;20298;-70
2023/11/05 15:58:47;;;;;;;4.22;3.90;;;;;;;;;;6306860;28;20290;-69
2023/11/05 16:01:52;;;;;;;3.90;3.60;;;;;;;;;;6306973;28;20298;-70
2023/11/05 16:04:56;;;;;;;4.63;4.22;;;;;;;;;;6305256;28;20322;-70
2023/11/05 16:08:00;;;;;;;5.38;3.67;;;;;;;;;;6306577;28;20606;-70
2023/11/05 16:11:05;;;;;;;4.75;3.75;;;;;;;;;;6306618;28;20298;-72
2023/11/05 16:14:10;;;;;;;10.45;3.85;;;;;;;;;;6306522;28;20310;-70
2023/11/05 16:17:14;;;;;;;5.35;3.47;;;;;;;;;;6306735;28;20478;-72
2023/11/05 16:20:18;;;;;;;4.03;3.65;;;;;;;;;;6306270;28;20306;-71
2023/11/05 16:23:22;;;;;;;5.63;3.80;;;;;;;;;;6306009;28;20314;-70
2023/11/05 16:26:25;;;;;;;4.55;4.00;;;;;;;;;;6306303;28;20294;-71
2023/11/05 16:29:31;;;;;;;4.50;3.95;;;;;;;;;;6305986;28;20233;-70
2023/11/05 16:32:35;;;;;;;4.10;3.70;;;;;;;;;;6306395;28;20294;-71
2023/11/05 16:35:39;;;;;;;3.40;3.20;;;;;;;;;;6305241;28;20313;-71
2023/11/05 16:38:42;;;;;;;4.30;3.78;;;;;;;;;;6305439;28;20496;-69
2023/11/05 16:41:46;;;;;;;3.83;3.45;;;;;;;;;;6305978;28;20250;-69
2023/11/05 16:44:51;;;;;;;6.05;4.05;;;;;;;;;;6305283;28;20322;-70
2023/11/05 16:47:55;;;;;;;4.88;3.22;;;;;;;;;;6305637;28;20446;-69
2023/11/05 16:50:59;;;;;;;4.20;3.88;;;;;;;;;;6305577;28;20298;-70
2023/11/05 16:54:03;;;;;;;6.63;3.33;;;;;;;;;;6303926;28;20290;-70
2023/11/05 16:57:07;;;;;;;5.05;3.42;;;;;;;;;;6305792;28;20294;-70
2023/11/05 17:00:16;;;;;;;3.70;3.40;;;;;;;;;;6305567;28;20282;-72
2023/11/05 17:03:22;;;;;;;5.35;3.22;;;;;;;;;;6305320;28;20286;-70
2023/11/05 17:06:27;;;;;;;3.55;2.95;;;;;;;;;;6304957;28;20285;-71
2023/11/05 17:09:31;;;;;;;4.57;3.30;;;;;;;;;;6305038;28;20583;-72
2023/11/05 17:12:34;;;;;;;5.38;3.47;;;;;;;;;;6306009;28;20289;-71
2023/11/05 17:15:40;;;;;;;3.10;2.83;;;;;;;;;;6305347;28;20294;-70
2023/11/05 17:18:44;;;;;;;4.05;3.08;;;;;;;;;;6305242;28;20302;-72
2023/11/05 17:21:48;;;;;;;2.95;2.85;;;;;;;;;;6306146;28;20298;-72
2023/11/05 17:24:52;;;;;;;3.80;3.13;;;;;;;;;;6305349;28;20298;-73
2023/11/05 17:27:55;;;;;;;5.25;3.08;;;;;;;;;;6304116;28;20317;-72
2023/11/05 17:31:01;;;;;;;4.78;2.88;;;;;;;;;;6305647;28;20302;-70
2023/11/05 17:34:06;;;;;;;3.47;2.97;;;;;;;;;;6304320;28;20285;-71
2023/11/05 17:37:10;;;;;;;3.50;3.30;;;;;;;;;;6305454;28;20484;-74
2023/11/05 17:40:14;;;;;;;5.43;3.03;;;;;;;;;;6305216;28;20286;-74
2023/11/05 17:43:18;;;;;;;7.20;3.08;;;;;;;;;;6304837;28;20298;-72
2023/11/05 17:46:23;;;;;;;2.70;2.60;;;;;;;;;;6304602;28;20598;-72
2023/11/05 17:49:27;;;;;;;3.90;3.35;;;;;;;;;;6305334;28;20479;-71
2023/11/05 17:52:36;;;;;;;4.15;3.30;;;;;;;;;;6339239;28;20294;-72
2023/11/05 17:55:43;;;;;;;3.78;3.25;;;;;;;;;;6303963;28;20311;-74
2023/11/05 17:58:48;;;;;;;3.35;3.15;;;;;;;;;;6308364;28;20290;-72
2023/11/05 18:01:55;;;;;;;4.93;3.30;;;;;;;;;;6305545;28;20298;-71
2023/11/05 18:04:59;;;;;;;5.55;3.45;;;;;;;;;;6303283;28;20307;-72
2023/11/05 18:08:03;;;;;;;5.72;3.40;;;;;;;;;;6304632;28;20297;-70
2023/11/05 18:11:07;;;;;;;3.40;3.30;;;;;;;;;;6304989;28;20310;-71
2023/11/05 18:14:11;;;;;;;9.00;3.42;;;;;;;;;;6304744;28;20301;-73
2023/11/05 18:17:16;;;;;;;2.92;2.70;;;;;;;;;;6306182;28;20326;-71
2023/11/05 18:20:20;;;;;;;3.67;3.38;;;;;;;;;;6308956;28;20462;-74
2023/11/05 18:23:24;;;;;;;3.38;3.17;;;;;;;;;;6308809;28;20294;-71
2023/11/05 18:26:28;;;;;;;3.05;2.83;;;;;;;;;;6309130;28;20490;-70